sensor_id;sensor_type;location;lat;lon;timestamp;P1;durP1;ratioP1;P2;durP2;ratioP2
11267;SDS011;49397;47.474;9.416;2022-08-19T00:01:50;10.50;;;6.87;;
11267;SDS011;49397;47.474;9.416;2022-08-19T00:04:18;10.83;;;6.70;;
11267;SDS011;49397;47.474;9.416;2022-08-19T00:06:48;9.90;;;7.00;;
11267;SDS011;49397;47.474;9.416;2022-08-19T00:09:14;9.60;;;6.77;;
11267;SDS011;49397;47.474;9.416;2022-08-19T00:11:41;9.37;;;6.90;;
11267;SDS011;49397;47.474;9.416;2022-08-19T00:14:09;9.07;;;7.50;;
11267;SDS011;49397;47.474;9.416;2022-08-19T00:16:37;7.67;;;6.93;;
11267;SDS011;49397;47.474;9.416;2022-08-19T00:19:03;9.40;;;8.40;;
11267;SDS011;49397;47.474;9.416;2022-08-19T00:21:29;10.93;;;8.90;;
11267;SDS011;49397;47.474;9.416;2022-08-19T00:23:55;9.53;;;7.47;;
11267;SDS011;49397;47.474;9.416;2022-08-19T00:26:26;9.23;;;8.23;;
11267;SDS011;49397;47.474;9.416;2022-08-19T00:28:52;11.73;;;8.27;;
11267;SDS011;49397;47.474;9.416;2022-08-19T00:31:18;10.83;;;8.30;;
11267;SDS011;49397;47.474;9.416;2022-08-19T00:33:43;10.47;;;9.03;;
11267;SDS011;49397;47.474;9.416;2022-08-19T00:36:09;12.83;;;9.63;;
11267;SDS011;49397;47.474;9.416;2022-08-19T00:38:36;12.77;;;10.13;;
11267;SDS011;49397;47.474;9.416;2022-08-19T00:41:06;11.73;;;9.13;;
11267;SDS011;49397;47.474;9.416;2022-08-19T00:43:32;11.77;;;9.27;;
11267;SDS011;49397;47.474;9.416;2022-08-19T00:45:58;13.27;;;9.90;;
11267;SDS011;49397;47.474;9.416;2022-08-19T00:48:23;12.00;;;8.90;;
11267;SDS011;49397;47.474;9.416;2022-08-19T00:50:49;11.97;;;9.43;;
11267;SDS011;49397;47.474;9.416;2022-08-19T00:53:19;10.37;;;8.90;;
11267;SDS011;49397;47.474;9.416;2022-08-19T00:55:47;11.87;;;9.13;;
11267;SDS011;49397;47.474;9.416;2022-08-19T00:58:16;10.37;;;8.83;;
11267;SDS011;49397;47.474;9.416;2022-08-19T01:00:45;12.43;;;10.33;;
11267;SDS011;49397;47.474;9.416;2022-08-19T01:03:13;14.60;;;9.90;;
11267;SDS011;49397;47.474;9.416;2022-08-19T01:05:42;12.30;;;9.73;;
11267;SDS011;49397;47.474;9.416;2022-08-19T01:08:09;13.70;;;9.80;;
11267;SDS011;49397;47.474;9.416;2022-08-19T01:10:37;13.87;;;9.97;;
11267;SDS011;49397;47.474;9.416;2022-08-19T01:13:05;12.60;;;10.33;;
11267;SDS011;49397;47.474;9.416;2022-08-19T01:15:35;12.13;;;10.57;;
11267;SDS011;49397;47.474;9.416;2022-08-19T01:18:08;13.03;;;10.03;;
11267;SDS011;49397;47.474;9.416;2022-08-19T01:20:36;13.97;;;10.60;;
11267;SDS011;49397;47.474;9.416;2022-08-19T01:23:03;13.47;;;11.00;;
11267;SDS011;49397;47.474;9.416;2022-08-19T01:25:32;15.30;;;10.47;;
11267;SDS011;49397;47.474;9.416;2022-08-19T01:28:02;13.47;;;10.90;;
11267;SDS011;49397;47.474;9.416;2022-08-19T01:30:29;14.57;;;11.03;;
11267;SDS011;49397;47.474;9.416;2022-08-19T01:32:58;13.30;;;10.57;;
11267;SDS011;49397;47.474;9.416;2022-08-19T01:35:26;12.10;;;10.27;;
11267;SDS011;49397;47.474;9.416;2022-08-19T01:37:55;13.43;;;11.13;;
11267;SDS011;49397;47.474;9.416;2022-08-19T01:40:24;13.47;;;11.33;;
11267;SDS011;49397;47.474;9.416;2022-08-19T01:42:54;16.50;;;12.27;;
11267;SDS011;49397;47.474;9.416;2022-08-19T01:45:21;12.20;;;10.90;;
11267;SDS011;49397;47.474;9.416;2022-08-19T01:47:48;12.57;;;11.13;;
11267;SDS011;49397;47.474;9.416;2022-08-19T01:50:14;10.87;;;9.63;;
11267;SDS011;49397;47.474;9.416;2022-08-19T01:52:41;11.83;;;10.60;;
11267;SDS011;49397;47.474;9.416;2022-08-19T01:55:11;12.87;;;10.33;;
11267;SDS011;49397;47.474;9.416;2022-08-19T01:57:40;13.07;;;10.97;;
11267;SDS011;49397;47.474;9.416;2022-08-19T02:00:10;12.43;;;10.40;;
11267;SDS011;49397;47.474;9.416;2022-08-19T02:02:39;14.20;;;11.60;;
11267;SDS011;49397;47.474;9.416;2022-08-19T02:05:05;14.00;;;12.10;;
11267;SDS011;49397;47.474;9.416;2022-08-19T02:07:33;11.50;;;9.73;;
11267;SDS011;49397;47.474;9.416;2022-08-19T02:10:00;11.97;;;10.67;;
11267;SDS011;49397;47.474;9.416;2022-08-19T02:12:28;11.33;;;10.13;;
11267;SDS011;49397;47.474;9.416;2022-08-19T02:14:54;13.03;;;11.53;;
11267;SDS011;49397;47.474;9.416;2022-08-19T02:17:19;14.93;;;11.97;;
11267;SDS011;49397;47.474;9.416;2022-08-19T02:19:45;16.97;;;12.90;;
11267;SDS011;49397;47.474;9.416;2022-08-19T02:22:11;15.43;;;13.60;;
11267;SDS011;49397;47.474;9.416;2022-08-19T02:24:37;13.90;;;12.13;;
11267;SDS011;49397;47.474;9.416;2022-08-19T02:27:03;15.03;;;13.43;;
11267;SDS011;49397;47.474;9.416;2022-08-19T02:29:29;16.53;;;14.30;;
11267;SDS011;49397;47.474;9.416;2022-08-19T02:31:55;15.63;;;13.07;;
11267;SDS011;49397;47.474;9.416;2022-08-19T02:34:21;17.60;;;13.13;;
11267;SDS011;49397;47.474;9.416;2022-08-19T02:36:46;15.20;;;12.17;;
11267;SDS011;49397;47.474;9.416;2022-08-19T02:39:12;15.47;;;12.50;;
11267;SDS011;49397;47.474;9.416;2022-08-19T02:41:38;17.27;;;14.10;;
11267;SDS011;49397;47.474;9.416;2022-08-19T02:44:04;17.80;;;14.07;;
11267;SDS011;49397;47.474;9.416;2022-08-19T02:46:30;15.83;;;12.40;;
11267;SDS011;49397;47.474;9.416;2022-08-19T02:49:02;16.90;;;13.30;;
11267;SDS011;49397;47.474;9.416;2022-08-19T02:51:34;16.67;;;13.10;;
11267;SDS011;49397;47.474;9.416;2022-08-19T02:54:02;15.53;;;12.50;;
11267;SDS011;49397;47.474;9.416;2022-08-19T02:56:29;15.77;;;12.03;;
11267;SDS011;49397;47.474;9.416;2022-08-19T02:58:56;13.40;;;11.60;;
11267;SDS011;49397;47.474;9.416;2022-08-19T03:01:27;13.70;;;11.67;;
11267;SDS011;49397;47.474;9.416;2022-08-19T03:03:56;14.43;;;12.43;;
11267;SDS011;49397;47.474;9.416;2022-08-19T03:06:23;13.83;;;11.77;;
11267;SDS011;49397;47.474;9.416;2022-08-19T03:08:49;14.27;;;11.73;;
11267;SDS011;49397;47.474;9.416;2022-08-19T03:11:19;15.43;;;12.37;;
11267;SDS011;49397;47.474;9.416;2022-08-19T03:13:56;13.30;;;11.40;;
11267;SDS011;49397;47.474;9.416;2022-08-19T03:16:23;13.40;;;11.73;;
11267;SDS011;49397;47.474;9.416;2022-08-19T03:18:51;16.13;;;11.80;;
11267;SDS011;49397;47.474;9.416;2022-08-19T03:21:19;14.90;;;12.10;;
11267;SDS011;49397;47.474;9.416;2022-08-19T03:23:47;14.47;;;12.63;;
11267;SDS011;49397;47.474;9.416;2022-08-19T03:26:12;15.87;;;12.63;;
11267;SDS011;49397;47.474;9.416;2022-08-19T03:28:40;15.60;;;12.37;;
11267;SDS011;49397;47.474;9.416;2022-08-19T03:31:11;13.37;;;11.37;;
11267;SDS011;49397;47.474;9.416;2022-08-19T03:33:39;17.97;;;12.40;;
11267;SDS011;49397;47.474;9.416;2022-08-19T03:36:06;15.17;;;13.07;;
11267;SDS011;49397;47.474;9.416;2022-08-19T03:38:36;17.33;;;11.90;;
11267;SDS011;49397;47.474;9.416;2022-08-19T03:41:04;15.33;;;12.23;;
11267;SDS011;49397;47.474;9.416;2022-08-19T03:43:32;14.83;;;11.70;;
11267;SDS011;49397;47.474;9.416;2022-08-19T03:46:00;15.00;;;12.13;;
11267;SDS011;49397;47.474;9.416;2022-08-19T03:48:30;16.87;;;12.80;;
11267;SDS011;49397;47.474;9.416;2022-08-19T03:50:57;15.73;;;12.67;;
11267;SDS011;49397;47.474;9.416;2022-08-19T03:53:24;15.13;;;12.17;;
11267;SDS011;49397;47.474;9.416;2022-08-19T03:55:51;14.17;;;12.27;;
11267;SDS011;49397;47.474;9.416;2022-08-19T03:58:18;18.33;;;12.97;;
11267;SDS011;49397;47.474;9.416;2022-08-19T04:00:43;14.73;;;11.40;;
11267;SDS011;49397;47.474;9.416;2022-08-19T04:03:08;14.80;;;12.17;;
11267;SDS011;49397;47.474;9.416;2022-08-19T04:05:34;15.97;;;12.50;;
11267;SDS011;49397;47.474;9.416;2022-08-19T04:07:59;15.37;;;11.93;;
11267;SDS011;49397;47.474;9.416;2022-08-19T04:10:26;15.73;;;12.00;;
11267;SDS011;49397;47.474;9.416;2022-08-19T04:12:53;14.30;;;11.80;;
11267;SDS011;49397;47.474;9.416;2022-08-19T04:15:19;18.43;;;13.90;;
11267;SDS011;49397;47.474;9.416;2022-08-19T04:17:45;15.57;;;12.13;;
11267;SDS011;49397;47.474;9.416;2022-08-19T04:20:11;15.63;;;13.13;;
11267;SDS011;49397;47.474;9.416;2022-08-19T04:22:37;16.70;;;12.80;;
11267;SDS011;49397;47.474;9.416;2022-08-19T04:25:02;17.30;;;13.50;;
11267;SDS011;49397;47.474;9.416;2022-08-19T04:27:28;15.57;;;13.03;;
11267;SDS011;49397;47.474;9.416;2022-08-19T04:29:54;19.33;;;13.30;;
11267;SDS011;49397;47.474;9.416;2022-08-19T04:32:20;18.07;;;14.13;;
11267;SDS011;49397;47.474;9.416;2022-08-19T04:34:46;17.43;;;13.80;;
11267;SDS011;49397;47.474;9.416;2022-08-19T04:37:11;21.63;;;14.23;;
11267;SDS011;49397;47.474;9.416;2022-08-19T04:39:38;21.63;;;15.50;;
11267;SDS011;49397;47.474;9.416;2022-08-19T04:42:22;23.00;;;15.77;;
11267;SDS011;49397;47.474;9.416;2022-08-19T04:45:07;21.43;;;15.70;;
11267;SDS011;49397;47.474;9.416;2022-08-19T04:47:39;21.97;;;15.97;;
11267;SDS011;49397;47.474;9.416;2022-08-19T04:50:07;20.97;;;15.83;;
11267;SDS011;49397;47.474;9.416;2022-08-19T04:52:33;21.53;;;16.10;;
11267;SDS011;49397;47.474;9.416;2022-08-19T04:54:59;25.60;;;18.63;;
11267;SDS011;49397;47.474;9.416;2022-08-19T04:57:25;26.03;;;17.70;;
11267;SDS011;49397;47.474;9.416;2022-08-19T04:59:57;18.57;;;12.90;;
11267;SDS011;49397;47.474;9.416;2022-08-19T05:02:23;29.77;;;18.97;;
11267;SDS011;49397;47.474;9.416;2022-08-19T05:04:49;25.10;;;16.87;;
11267;SDS011;49397;47.474;9.416;2022-08-19T05:07:15;21.67;;;14.97;;
11267;SDS011;49397;47.474;9.416;2022-08-19T05:09:41;20.07;;;15.07;;
11267;SDS011;49397;47.474;9.416;2022-08-19T05:12:07;24.50;;;16.20;;
11267;SDS011;49397;47.474;9.416;2022-08-19T05:14:33;21.57;;;15.80;;
11267;SDS011;49397;47.474;9.416;2022-08-19T05:17:00;21.60;;;15.20;;
11267;SDS011;49397;47.474;9.416;2022-08-19T05:19:25;19.23;;;13.77;;
11267;SDS011;49397;47.474;9.416;2022-08-19T05:22:10;15.30;;;11.77;;
11267;SDS011;49397;47.474;9.416;2022-08-19T05:24:58;12.77;;;11.23;;
11267;SDS011;49397;47.474;9.416;2022-08-19T05:27:25;14.37;;;12.20;;
11267;SDS011;49397;47.474;9.416;2022-08-19T05:29:50;18.57;;;13.30;;
11267;SDS011;49397;47.474;9.416;2022-08-19T05:32:16;18.77;;;14.13;;
11267;SDS011;49397;47.474;9.416;2022-08-19T05:34:41;17.03;;;13.77;;
11267;SDS011;49397;47.474;9.416;2022-08-19T05:37:07;18.60;;;13.93;;
11267;SDS011;49397;47.474;9.416;2022-08-19T05:39:34;19.33;;;14.23;;
11267;SDS011;49397;47.474;9.416;2022-08-19T05:42:02;20.60;;;15.50;;
11267;SDS011;49397;47.474;9.416;2022-08-19T05:44:33;17.23;;;14.13;;
11267;SDS011;49397;47.474;9.416;2022-08-19T05:47:00;20.80;;;16.03;;
11267;SDS011;49397;47.474;9.416;2022-08-19T05:49:28;20.30;;;15.93;;
11267;SDS011;49397;47.474;9.416;2022-08-19T05:51:54;23.47;;;17.60;;
11267;SDS011;49397;47.474;9.416;2022-08-19T05:54:20;21.30;;;16.50;;
11267;SDS011;49397;47.474;9.416;2022-08-19T05:56:48;22.87;;;16.97;;
11267;SDS011;49397;47.474;9.416;2022-08-19T05:59:16;23.77;;;17.77;;
11267;SDS011;49397;47.474;9.416;2022-08-19T06:01:43;25.33;;;18.07;;
11267;SDS011;49397;47.474;9.416;2022-08-19T06:04:09;26.30;;;17.97;;
11267;SDS011;49397;47.474;9.416;2022-08-19T06:06:35;27.00;;;18.13;;
11267;SDS011;49397;47.474;9.416;2022-08-19T06:09:04;28.93;;;19.30;;
11267;SDS011;49397;47.474;9.416;2022-08-19T06:11:34;31.03;;;19.37;;
11267;SDS011;49397;47.474;9.416;2022-08-19T06:14:03;31.17;;;21.27;;
11267;SDS011;49397;47.474;9.416;2022-08-19T06:16:33;31.50;;;20.57;;
11267;SDS011;49397;47.474;9.416;2022-08-19T06:19:00;33.47;;;21.50;;
11267;SDS011;49397;47.474;9.416;2022-08-19T06:21:28;34.33;;;22.00;;
11267;SDS011;49397;47.474;9.416;2022-08-19T06:23:55;32.80;;;22.27;;
11267;SDS011;49397;47.474;9.416;2022-08-19T06:26:22;39.27;;;22.40;;
11267;SDS011;49397;47.474;9.416;2022-08-19T06:28:49;34.80;;;23.17;;
11267;SDS011;49397;47.474;9.416;2022-08-19T06:31:16;35.87;;;23.07;;
11267;SDS011;49397;47.474;9.416;2022-08-19T06:33:45;34.57;;;23.10;;
11267;SDS011;49397;47.474;9.416;2022-08-19T06:38:44;35.47;;;22.70;;
11267;SDS011;49397;47.474;9.416;2022-08-19T06:41:10;34.47;;;21.40;;
11267;SDS011;49397;47.474;9.416;2022-08-19T06:43:36;36.50;;;23.90;;
11267;SDS011;49397;47.474;9.416;2022-08-19T06:46:01;34.23;;;22.70;;
11267;SDS011;49397;47.474;9.416;2022-08-19T06:48:29;34.93;;;20.43;;
11267;SDS011;49397;47.474;9.416;2022-08-19T06:50:55;36.50;;;22.13;;
11267;SDS011;49397;47.474;9.416;2022-08-19T06:53:21;36.83;;;22.87;;
11267;SDS011;49397;47.474;9.416;2022-08-19T06:55:47;34.27;;;22.60;;
11267;SDS011;49397;47.474;9.416;2022-08-19T06:58:12;40.17;;;23.60;;
11267;SDS011;49397;47.474;9.416;2022-08-19T07:00:38;34.70;;;21.67;;
11267;SDS011;49397;47.474;9.416;2022-08-19T07:03:03;34.53;;;22.60;;
11267;SDS011;49397;47.474;9.416;2022-08-19T07:05:29;33.83;;;21.07;;
11267;SDS011;49397;47.474;9.416;2022-08-19T07:07:54;34.13;;;21.17;;
11267;SDS011;49397;47.474;9.416;2022-08-19T07:10:20;34.83;;;21.23;;
11267;SDS011;49397;47.474;9.416;2022-08-19T07:12:46;31.07;;;20.00;;
11267;SDS011;49397;47.474;9.416;2022-08-19T07:15:12;33.73;;;21.03;;
11267;SDS011;49397;47.474;9.416;2022-08-19T07:17:38;31.17;;;20.27;;
11267;SDS011;49397;47.474;9.416;2022-08-19T07:20:05;25.67;;;19.20;;
11267;SDS011;49397;47.474;9.416;2022-08-19T07:22:36;28.27;;;18.83;;
11267;SDS011;49397;47.474;9.416;2022-08-19T07:25:03;26.33;;;18.43;;
11267;SDS011;49397;47.474;9.416;2022-08-19T07:27:30;28.13;;;18.23;;
11267;SDS011;49397;47.474;9.416;2022-08-19T07:29:56;29.17;;;17.40;;
11267;SDS011;49397;47.474;9.416;2022-08-19T07:32:21;26.77;;;16.90;;
11267;SDS011;49397;47.474;9.416;2022-08-19T07:34:47;29.53;;;17.97;;
11267;SDS011;49397;47.474;9.416;2022-08-19T07:37:12;25.27;;;18.03;;
11267;SDS011;49397;47.474;9.416;2022-08-19T07:39:38;24.93;;;17.13;;
11267;SDS011;49397;47.474;9.416;2022-08-19T07:42:05;26.57;;;17.47;;
11267;SDS011;49397;47.474;9.416;2022-08-19T07:44:33;24.07;;;16.53;;
11267;SDS011;49397;47.474;9.416;2022-08-19T07:46:59;29.90;;;18.57;;
11267;SDS011;49397;47.474;9.416;2022-08-19T07:49:26;28.00;;;17.93;;
11267;SDS011;49397;47.474;9.416;2022-08-19T07:51:54;26.53;;;18.50;;
11267;SDS011;49397;47.474;9.416;2022-08-19T07:54:23;32.20;;;21.27;;
11267;SDS011;49397;47.474;9.416;2022-08-19T07:56:50;31.67;;;19.87;;
11267;SDS011;49397;47.474;9.416;2022-08-19T07:59:18;31.77;;;21.20;;
11267;SDS011;49397;47.474;9.416;2022-08-19T08:01:45;31.83;;;20.00;;
11267;SDS011;49397;47.474;9.416;2022-08-19T08:04:11;29.73;;;20.30;;
11267;SDS011;49397;47.474;9.416;2022-08-19T08:06:55;35.17;;;22.37;;
11267;SDS011;49397;47.474;9.416;2022-08-19T08:09:41;35.03;;;21.93;;
11267;SDS011;49397;47.474;9.416;2022-08-19T08:12:15;36.93;;;23.33;;
11267;SDS011;49397;47.474;9.416;2022-08-19T08:14:45;30.57;;;20.70;;
11267;SDS011;49397;47.474;9.416;2022-08-19T08:17:15;34.33;;;21.93;;
11267;SDS011;49397;47.474;9.416;2022-08-19T08:19:42;31.40;;;20.27;;
11267;SDS011;49397;47.474;9.416;2022-08-19T08:22:10;31.93;;;20.97;;
11267;SDS011;49397;47.474;9.416;2022-08-19T08:24:56;36.37;;;21.87;;
11267;SDS011;49397;47.474;9.416;2022-08-19T08:27:27;33.30;;;21.40;;
11267;SDS011;49397;47.474;9.416;2022-08-19T08:29:54;32.37;;;21.17;;
11267;SDS011;49397;47.474;9.416;2022-08-19T08:32:20;33.97;;;22.27;;
11267;SDS011;49397;47.474;9.416;2022-08-19T08:34:45;31.90;;;21.37;;
11267;SDS011;49397;47.474;9.416;2022-08-19T08:37:11;36.27;;;23.20;;
11267;SDS011;49397;47.474;9.416;2022-08-19T08:39:36;34.77;;;22.30;;
11267;SDS011;49397;47.474;9.416;2022-08-19T08:42:07;32.53;;;21.90;;
11267;SDS011;49397;47.474;9.416;2022-08-19T08:47:36;35.33;;;22.63;;
11267;SDS011;49397;47.474;9.416;2022-08-19T08:50:06;30.53;;;21.23;;
11267;SDS011;49397;47.474;9.416;2022-08-19T08:52:41;31.73;;;21.87;;
11267;SDS011;49397;47.474;9.416;2022-08-19T08:55:12;32.03;;;22.07;;
11267;SDS011;49397;47.474;9.416;2022-08-19T09:00:17;36.03;;;22.13;;
11267;SDS011;49397;47.474;9.416;2022-08-19T09:02:46;35.07;;;22.43;;
11267;SDS011;49397;47.474;9.416;2022-08-19T09:05:12;34.17;;;22.93;;
11267;SDS011;49397;47.474;9.416;2022-08-19T09:10:32;35.30;;;24.43;;
11267;SDS011;49397;47.474;9.416;2022-08-19T09:13:16;37.93;;;24.03;;
11267;SDS011;49397;47.474;9.416;2022-08-19T09:16:00;37.53;;;24.47;;
11267;SDS011;49397;47.474;9.416;2022-08-19T09:18:43;33.13;;;21.93;;
11267;SDS011;49397;47.474;9.416;2022-08-19T09:21:12;33.80;;;23.00;;
11267;SDS011;49397;47.474;9.416;2022-08-19T09:23:39;36.33;;;23.33;;
11267;SDS011;49397;47.474;9.416;2022-08-19T09:26:09;35.00;;;22.17;;
11267;SDS011;49397;47.474;9.416;2022-08-19T09:28:40;34.77;;;23.03;;
11267;SDS011;49397;47.474;9.416;2022-08-19T09:31:13;38.13;;;24.43;;
11267;SDS011;49397;47.474;9.416;2022-08-19T09:33:44;38.03;;;23.80;;
11267;SDS011;49397;47.474;9.416;2022-08-19T09:36:11;35.77;;;23.00;;
11267;SDS011;49397;47.474;9.416;2022-08-19T09:38:38;34.23;;;20.53;;
11267;SDS011;49397;47.474;9.416;2022-08-19T09:41:08;38.47;;;23.80;;
11267;SDS011;49397;47.474;9.416;2022-08-19T09:43:38;37.87;;;23.73;;
11267;SDS011;49397;47.474;9.416;2022-08-19T09:46:05;34.83;;;22.10;;
11267;SDS011;49397;47.474;9.416;2022-08-19T09:48:34;36.10;;;23.30;;
11267;SDS011;49397;47.474;9.416;2022-08-19T09:51:08;41.67;;;23.43;;
11267;SDS011;49397;47.474;9.416;2022-08-19T09:53:35;40.90;;;23.43;;
11267;SDS011;49397;47.474;9.416;2022-08-19T09:56:03;42.53;;;24.40;;
11267;SDS011;49397;47.474;9.416;2022-08-19T09:58:30;44.83;;;25.37;;
11267;SDS011;49397;47.474;9.416;2022-08-19T10:00:57;41.40;;;25.27;;
11267;SDS011;49397;47.474;9.416;2022-08-19T10:03:23;40.93;;;24.83;;
11267;SDS011;49397;47.474;9.416;2022-08-19T10:05:49;40.70;;;24.37;;
11267;SDS011;49397;47.474;9.416;2022-08-19T10:08:16;42.80;;;24.30;;
11267;SDS011;49397;47.474;9.416;2022-08-19T10:10:45;37.43;;;24.63;;
11267;SDS011;49397;47.474;9.416;2022-08-19T10:13:13;39.00;;;24.60;;
11267;SDS011;49397;47.474;9.416;2022-08-19T10:15:40;40.30;;;24.37;;
11267;SDS011;49397;47.474;9.416;2022-08-19T10:18:06;39.17;;;23.47;;
11267;SDS011;49397;47.474;9.416;2022-08-19T10:20:32;42.27;;;24.23;;
11267;SDS011;49397;47.474;9.416;2022-08-19T10:23:01;37.80;;;22.77;;
11267;SDS011;49397;47.474;9.416;2022-08-19T10:25:28;32.23;;;21.83;;
11267;SDS011;49397;47.474;9.416;2022-08-19T10:27:53;37.50;;;21.67;;
11267;SDS011;49397;47.474;9.416;2022-08-19T10:30:19;34.33;;;20.83;;
11267;SDS011;49397;47.474;9.416;2022-08-19T10:32:45;35.53;;;20.50;;
11267;SDS011;49397;47.474;9.416;2022-08-19T10:35:11;35.77;;;21.27;;
11267;SDS011;49397;47.474;9.416;2022-08-19T10:37:37;34.70;;;21.80;;
11267;SDS011;49397;47.474;9.416;2022-08-19T10:40:06;44.00;;;23.43;;
11267;SDS011;49397;47.474;9.416;2022-08-19T10:42:33;39.20;;;21.87;;
11267;SDS011;49397;47.474;9.416;2022-08-19T10:44:59;37.70;;;22.20;;
11267;SDS011;49397;47.474;9.416;2022-08-19T10:47:25;32.50;;;20.23;;
11267;SDS011;49397;47.474;9.416;2022-08-19T10:49:51;36.67;;;21.90;;
11267;SDS011;49397;47.474;9.416;2022-08-19T10:52:36;39.47;;;22.20;;
11267;SDS011;49397;47.474;9.416;2022-08-19T10:55:05;39.27;;;22.63;;
11267;SDS011;49397;47.474;9.416;2022-08-19T10:57:50;34.27;;;21.23;;
11267;SDS011;49397;47.474;9.416;2022-08-19T11:00:18;34.17;;;20.70;;
11267;SDS011;49397;47.474;9.416;2022-08-19T11:02:45;32.43;;;20.07;;
11267;SDS011;49397;47.474;9.416;2022-08-19T11:05:11;31.10;;;19.37;;
11267;SDS011;49397;47.474;9.416;2022-08-19T11:07:37;36.57;;;21.80;;
11267;SDS011;49397;47.474;9.416;2022-08-19T11:10:05;29.93;;;19.70;;
11267;SDS011;49397;47.474;9.416;2022-08-19T11:12:31;31.10;;;19.37;;
11267;SDS011;49397;47.474;9.416;2022-08-19T11:14:58;32.10;;;19.33;;
11267;SDS011;49397;47.474;9.416;2022-08-19T11:17:23;33.10;;;21.43;;
11267;SDS011;49397;47.474;9.416;2022-08-19T11:19:49;30.10;;;18.20;;
11267;SDS011;49397;47.474;9.416;2022-08-19T11:22:15;32.87;;;19.37;;
11267;SDS011;49397;47.474;9.416;2022-08-19T11:24:42;30.90;;;19.50;;
11267;SDS011;49397;47.474;9.416;2022-08-19T11:27:08;31.17;;;20.40;;
11267;SDS011;49397;47.474;9.416;2022-08-19T11:29:35;28.97;;;18.93;;
11267;SDS011;49397;47.474;9.416;2022-08-19T11:32:04;26.30;;;17.53;;
11267;SDS011;49397;47.474;9.416;2022-08-19T11:34:32;27.37;;;17.70;;
11267;SDS011;49397;47.474;9.416;2022-08-19T11:37:00;22.83;;;15.70;;
11267;SDS011;49397;47.474;9.416;2022-08-19T11:39:27;23.57;;;15.67;;
11267;SDS011;49397;47.474;9.416;2022-08-19T11:41:55;22.47;;;15.80;;
11267;SDS011;49397;47.474;9.416;2022-08-19T11:44:22;23.10;;;14.83;;
11267;SDS011;49397;47.474;9.416;2022-08-19T11:46:47;21.87;;;15.40;;
11267;SDS011;49397;47.474;9.416;2022-08-19T11:49:14;21.10;;;13.67;;
11267;SDS011;49397;47.474;9.416;2022-08-19T11:51:41;23.70;;;14.83;;
11267;SDS011;49397;47.474;9.416;2022-08-19T11:54:08;20.40;;;14.30;;
11267;SDS011;49397;47.474;9.416;2022-08-19T11:56:34;20.47;;;14.07;;
11267;SDS011;49397;47.474;9.416;2022-08-19T11:59:02;20.13;;;14.77;;
11267;SDS011;49397;47.474;9.416;2022-08-19T12:01:28;16.00;;;12.87;;
11267;SDS011;49397;47.474;9.416;2022-08-19T12:03:54;15.43;;;11.37;;
11267;SDS011;49397;47.474;9.416;2022-08-19T12:06:22;13.77;;;10.47;;
11267;SDS011;49397;47.474;9.416;2022-08-19T12:08:54;16.00;;;11.87;;
11267;SDS011;49397;47.474;9.416;2022-08-19T12:11:20;15.33;;;11.10;;
11267;SDS011;49397;47.474;9.416;2022-08-19T12:13:46;15.63;;;10.93;;
11267;SDS011;49397;47.474;9.416;2022-08-19T12:16:14;13.47;;;10.03;;
11267;SDS011;49397;47.474;9.416;2022-08-19T12:18:43;13.63;;;11.73;;
11267;SDS011;49397;47.474;9.416;2022-08-19T12:21:11;16.30;;;11.73;;
11267;SDS011;49397;47.474;9.416;2022-08-19T12:23:42;13.07;;;9.33;;
11267;SDS011;49397;47.474;9.416;2022-08-19T12:26:10;13.23;;;10.27;;
11267;SDS011;49397;47.474;9.416;2022-08-19T12:28:36;15.80;;;10.97;;
11267;SDS011;49397;47.474;9.416;2022-08-19T12:31:02;13.57;;;9.57;;
11267;SDS011;49397;47.474;9.416;2022-08-19T12:33:28;16.87;;;10.87;;
11267;SDS011;49397;47.474;9.416;2022-08-19T12:35:54;15.13;;;12.83;;
11267;SDS011;49397;47.474;9.416;2022-08-19T12:38:19;19.70;;;13.53;;
11267;SDS011;49397;47.474;9.416;2022-08-19T12:40:49;20.10;;;14.67;;
11267;SDS011;49397;47.474;9.416;2022-08-19T12:43:17;22.33;;;14.87;;
11267;SDS011;49397;47.474;9.416;2022-08-19T12:45:43;18.50;;;13.77;;
11267;SDS011;49397;47.474;9.416;2022-08-19T12:48:10;22.27;;;15.80;;
11267;SDS011;49397;47.474;9.416;2022-08-19T12:50:38;24.93;;;15.80;;
11267;SDS011;49397;47.474;9.416;2022-08-19T12:53:04;22.60;;;15.53;;
11267;SDS011;49397;47.474;9.416;2022-08-19T12:55:30;32.20;;;19.40;;
11267;SDS011;49397;47.474;9.416;2022-08-19T12:57:55;30.10;;;20.97;;
11267;SDS011;49397;47.474;9.416;2022-08-19T13:00:21;32.33;;;21.70;;
11267;SDS011;49397;47.474;9.416;2022-08-19T13:02:48;33.97;;;22.37;;
11267;SDS011;49397;47.474;9.416;2022-08-19T13:05:19;31.90;;;21.70;;
11267;SDS011;49397;47.474;9.416;2022-08-19T13:07:48;38.60;;;23.20;;
11267;SDS011;49397;47.474;9.416;2022-08-19T13:10:17;39.77;;;24.70;;
11267;SDS011;49397;47.474;9.416;2022-08-19T13:12:45;40.57;;;25.83;;
11267;SDS011;49397;47.474;9.416;2022-08-19T13:15:13;41.53;;;25.10;;
11267;SDS011;49397;47.474;9.416;2022-08-19T13:17:40;39.80;;;25.27;;
11267;SDS011;49397;47.474;9.416;2022-08-19T13:20:07;47.03;;;28.00;;
11267;SDS011;49397;47.474;9.416;2022-08-19T13:22:34;43.90;;;26.83;;
11267;SDS011;49397;47.474;9.416;2022-08-19T13:25:01;41.53;;;27.67;;
11267;SDS011;49397;47.474;9.416;2022-08-19T13:27:27;41.20;;;27.07;;
11267;SDS011;49397;47.474;9.416;2022-08-19T13:29:54;41.77;;;28.40;;
11267;SDS011;49397;47.474;9.416;2022-08-19T13:32:38;45.53;;;28.70;;
11267;SDS011;49397;47.474;9.416;2022-08-19T13:35:23;42.77;;;28.20;;
11267;SDS011;49397;47.474;9.416;2022-08-19T13:37:48;43.53;;;27.40;;
11267;SDS011;49397;47.474;9.416;2022-08-19T13:40:15;40.70;;;27.03;;
11267;SDS011;49397;47.474;9.416;2022-08-19T13:42:44;39.67;;;27.10;;
11267;SDS011;49397;47.474;9.416;2022-08-19T13:45:12;42.70;;;27.37;;
11267;SDS011;49397;47.474;9.416;2022-08-19T13:47:39;43.60;;;27.57;;
11267;SDS011;49397;47.474;9.416;2022-08-19T13:50:08;41.27;;;27.03;;
11267;SDS011;49397;47.474;9.416;2022-08-19T13:52:36;43.90;;;28.43;;
11267;SDS011;49397;47.474;9.416;2022-08-19T13:55:02;40.50;;;27.57;;
11267;SDS011;49397;47.474;9.416;2022-08-19T13:57:28;40.43;;;26.97;;
11267;SDS011;49397;47.474;9.416;2022-08-19T13:59:53;37.77;;;26.43;;
11267;SDS011;49397;47.474;9.416;2022-08-19T14:02:19;42.17;;;27.33;;
11267;SDS011;49397;47.474;9.416;2022-08-19T14:04:45;43.67;;;27.60;;
11267;SDS011;49397;47.474;9.416;2022-08-19T14:07:10;45.10;;;28.90;;
11267;SDS011;49397;47.474;9.416;2022-08-19T14:09:36;46.83;;;28.40;;
11267;SDS011;49397;47.474;9.416;2022-08-19T14:12:01;41.03;;;27.53;;
11267;SDS011;49397;47.474;9.416;2022-08-19T14:14:27;40.53;;;26.57;;
11267;SDS011;49397;47.474;9.416;2022-08-19T14:16:54;41.43;;;27.50;;
11267;SDS011;49397;47.474;9.416;2022-08-19T14:19:19;42.50;;;27.87;;
11267;SDS011;49397;47.474;9.416;2022-08-19T14:21:45;44.27;;;27.93;;
11267;SDS011;49397;47.474;9.416;2022-08-19T14:24:10;41.93;;;28.17;;
11267;SDS011;49397;47.474;9.416;2022-08-19T14:26:36;41.10;;;27.50;;
11267;SDS011;49397;47.474;9.416;2022-08-19T14:29:01;34.60;;;24.40;;
11267;SDS011;49397;47.474;9.416;2022-08-19T14:31:27;39.60;;;26.90;;
11267;SDS011;49397;47.474;9.416;2022-08-19T14:33:53;39.90;;;27.67;;
11267;SDS011;49397;47.474;9.416;2022-08-19T14:36:19;41.47;;;27.63;;
11267;SDS011;49397;47.474;9.416;2022-08-19T14:38:46;39.67;;;25.97;;